createdAt,value
2018-03-04T00:00:48.503Z,-0.40
2018-03-04T00:03:16.844Z,-0.30
2018-03-04T00:05:45.197Z,-0.20
2018-03-04T00:08:13.556Z,-0.10
2018-03-04T00:10:41.872Z,0.00
2018-03-04T00:13:10.338Z,0.10
2018-03-04T00:15:38.638Z,0.20
2018-03-04T00:18:06.970Z,0.20
2018-03-04T00:20:35.299Z,0.30
2018-03-04T00:23:03.608Z,0.30
2018-03-04T00:25:31.923Z,0.40
2018-03-04T00:28:00.247Z,0.40
2018-03-04T00:30:28.581Z,0.50
2018-03-04T00:32:56.923Z,0.50
2018-03-04T00:35:25.364Z,0.50
2018-03-04T00:37:53.667Z,0.50
2018-03-04T00:40:22.078Z,0.50
2018-03-04T00:42:50.408Z,0.40
2018-03-04T00:45:18.767Z,0.40
2018-03-04T00:47:47.113Z,0.40
2018-03-04T00:50:15.460Z,0.30
2018-03-04T00:52:43.784Z,0.30
2018-03-04T00:55:12.880Z,0.20
2018-03-04T00:57:42.679Z,0.20
2018-03-04T01:00:11.139Z,0.20
2018-03-04T01:02:39.451Z,0.20
2018-03-04T01:05:08.586Z,0.10
2018-03-04T01:07:36.923Z,0.10
2018-03-04T01:10:05.255Z,0.10
2018-03-04T01:12:33.593Z,0.10
2018-03-04T01:15:02.696Z,0.10
2018-03-04T01:17:31.777Z,0.20
2018-03-04T01:20:00.118Z,0.10
2018-03-04T01:22:28.670Z,0.20
2018-03-04T01:24:57.811Z,0.30
2018-03-04T01:27:26.143Z,0.30
2018-03-04T01:29:54.469Z,0.40
2018-03-04T01:32:22.984Z,0.40
2018-03-04T01:34:51.303Z,0.50
2018-03-04T01:37:20.375Z,0.70
2018-03-04T01:39:48.753Z,0.70
2018-03-04T01:42:17.073Z,0.80
2018-03-04T01:44:46.280Z,0.90
2018-03-04T01:47:14.579Z,0.90
2018-03-04T01:49:42.901Z,0.90
2018-03-04T01:52:11.215Z,1.00
2018-03-04T01:54:40.329Z,1.00
2018-03-04T01:57:08.658Z,1.00
2018-03-04T01:59:36.983Z,1.00
2018-03-04T02:02:05.327Z,1.00
2018-03-04T02:04:33.637Z,0.90
2018-03-04T02:07:01.997Z,0.80
2018-03-04T02:09:31.117Z,0.70
2018-03-04T02:12:00.191Z,0.70
2018-03-04T02:14:28.495Z,0.70
2018-03-04T02:16:57.574Z,0.70
2018-03-04T02:19:26.647Z,0.70
2018-03-04T02:21:55.245Z,0.70
2018-03-04T02:24:23.547Z,0.80
2018-03-04T02:26:52.655Z,1.00
2018-03-04T02:29:20.987Z,1.00
2018-03-04T02:31:49.308Z,1.10
2018-03-04T02:34:18.878Z,1.20
2018-03-04T02:36:47.206Z,1.20
2018-03-04T02:39:16.294Z,1.30
2018-03-04T02:41:45.813Z,1.30
2018-03-04T02:44:14.889Z,1.40
2018-03-04T02:46:43.199Z,1.40
2018-03-04T02:49:11.529Z,1.40
2018-03-04T02:51:39.852Z,1.50
2018-03-04T02:54:08.927Z,1.50
2018-03-04T02:56:37.251Z,1.50
2018-03-04T02:59:05.589Z,1.50
2018-03-04T03:01:34.696Z,1.50
2018-03-04T03:04:03.932Z,1.50
2018-03-04T03:06:32.236Z,1.50
2018-03-04T03:09:00.589Z,1.50
2018-03-04T03:11:28.899Z,1.50
2018-03-04T03:13:58.285Z,1.50
2018-03-04T03:16:26.713Z,1.50
2018-03-04T03:18:55.792Z,1.50
2018-03-04T03:21:24.375Z,1.50
2018-03-04T03:23:52.683Z,1.50
2018-03-04T03:26:21.015Z,1.50
2018-03-04T03:28:49.328Z,1.50
2018-03-04T03:31:17.666Z,1.40
2018-03-04T03:33:46.001Z,1.20
2018-03-04T03:36:14.339Z,1.10
2018-03-04T03:38:42.655Z,0.90
2018-03-04T03:41:11.001Z,0.70
2018-03-04T03:43:39.437Z,0.60
2018-03-04T03:46:09.365Z,0.40
2018-03-04T03:48:38.449Z,0.30
2018-03-04T03:51:07.561Z,0.30
2018-03-04T03:53:36.669Z,0.30
2018-03-04T03:56:04.984Z,0.20
2018-03-04T03:58:33.318Z,0.30
2018-03-04T04:01:01.647Z,0.30
2018-03-04T04:03:29.982Z,0.30
2018-03-04T04:05:59.063Z,0.40
2018-03-04T04:08:28.183Z,0.50
2018-03-04T04:10:56.501Z,0.40
2018-03-04T04:13:24.799Z,0.50
2018-03-04T04:15:53.132Z,0.50
2018-03-04T04:18:21.461Z,0.50
2018-03-04T04:20:49.785Z,0.50
2018-03-04T04:23:18.106Z,0.50
2018-03-04T04:25:46.458Z,0.60
2018-03-04T04:28:14.775Z,0.60
2018-03-04T04:30:43.099Z,0.70
2018-03-04T04:33:12.178Z,0.80
2018-03-04T04:35:40.493Z,0.80
2018-03-04T04:38:08.809Z,0.80
2018-03-04T04:40:37.154Z,0.90
2018-03-04T04:43:05.477Z,0.90
2018-03-04T04:45:33.815Z,1.00
2018-03-04T04:48:02.197Z,0.90
2018-03-04T04:50:30.537Z,0.90
2018-03-04T04:52:58.867Z,0.90
2018-03-04T04:55:27.197Z,0.90
2018-03-04T04:57:55.601Z,0.80
2018-03-04T05:00:24.700Z,0.70
2018-03-04T05:02:53.774Z,0.70
2018-03-04T05:05:22.119Z,0.70
2018-03-04T05:07:50.562Z,0.60
2018-03-04T05:10:20.448Z,0.70
2018-03-04T05:12:48.920Z,0.70
2018-03-04T05:15:17.281Z,0.80
2018-03-04T05:17:45.601Z,0.90
2018-03-04T05:20:13.909Z,0.90
2018-03-04T05:22:43.055Z,1.00
2018-03-04T05:25:11.406Z,1.00
2018-03-04T05:27:39.700Z,1.10
2018-03-04T05:30:08.043Z,1.10
2018-03-04T05:32:37.130Z,1.30
2018-03-04T05:35:05.461Z,1.30
2018-03-04T05:37:33.774Z,1.40
2018-03-04T05:40:02.105Z,1.50
2018-03-04T05:42:30.446Z,1.60
2018-03-04T05:44:58.919Z,1.70
2018-03-04T05:47:27.475Z,1.80
2018-03-04T05:49:55.784Z,1.80
2018-03-04T05:52:24.109Z,1.70
2018-03-04T05:54:52.457Z,1.50
2018-03-04T05:57:20.799Z,1.40
2018-03-04T05:59:49.146Z,1.20
2018-03-04T06:02:17.508Z,1.00
2018-03-04T06:04:46.610Z,0.70
2018-03-04T06:07:14.920Z,0.70
2018-03-04T06:09:43.246Z,0.60
2018-03-04T06:12:11.575Z,0.50
2018-03-04T06:14:39.929Z,0.50
2018-03-04T06:17:08.258Z,0.40
2018-03-04T06:19:36.600Z,0.40
2018-03-04T06:22:05.718Z,0.30
2018-03-04T06:24:34.106Z,0.30
2018-03-04T06:27:02.400Z,0.30
2018-03-04T06:29:30.751Z,0.30
2018-03-04T06:31:59.844Z,0.30
2018-03-04T06:34:28.208Z,0.30
2018-03-04T06:36:57.318Z,0.60
2018-03-04T06:39:26.509Z,0.80
2018-03-04T06:41:54.863Z,0.80
2018-03-04T06:44:27.196Z,1.00
2018-03-04T06:46:55.530Z,1.20
2018-03-04T06:49:23.857Z,1.40
2018-03-04T06:51:52.223Z,1.60
2018-03-04T06:54:21.344Z,1.90
2018-03-04T06:56:49.672Z,1.80
2018-03-04T06:59:18.781Z,2.10
2018-03-04T07:01:47.114Z,2.00
2018-03-04T07:04:15.472Z,2.10
2018-03-04T07:06:44.534Z,2.30
2018-03-04T07:09:12.905Z,2.30
2018-03-04T07:11:41.291Z,2.40
2018-03-04T07:14:09.642Z,2.50
2018-03-04T07:16:38.035Z,2.60
2018-03-04T07:19:06.347Z,2.70
2018-03-04T07:21:34.656Z,2.90
2018-03-04T07:24:03.732Z,3.00
2018-03-04T07:26:32.892Z,3.00
2018-03-04T07:29:01.207Z,3.10
2018-03-04T07:31:29.576Z,3.20
2018-03-04T07:33:57.906Z,3.40
2018-03-04T07:36:26.307Z,3.50
2018-03-04T07:38:54.632Z,3.70
2018-03-04T07:41:22.948Z,3.90
2018-03-04T07:43:52.030Z,4.30
2018-03-04T07:46:21.102Z,4.40
2018-03-04T07:48:49.418Z,4.40
2018-03-04T07:51:18.511Z,4.50
2018-03-04T07:53:47.588Z,4.60
2018-03-04T07:56:15.914Z,4.60
2018-03-04T07:58:45.064Z,4.70
2018-03-04T08:01:13.507Z,4.80
2018-03-04T08:03:43.477Z,5.20
2018-03-04T08:06:11.808Z,5.20
2018-03-04T08:08:40.266Z,5.40
2018-03-04T08:11:09.341Z,5.80
2018-03-04T08:13:37.677Z,5.80
2018-03-04T08:16:06.007Z,6.10
2018-03-04T08:18:34.368Z,6.30
2018-03-04T08:21:02.662Z,6.50
2018-03-04T08:23:31.749Z,6.70
2018-03-04T08:26:17.772Z,6.70
2018-03-04T08:28:46.070Z,6.90
2018-03-04T08:31:14.402Z,7.00
2018-03-04T08:33:42.739Z,7.10
2018-03-04T08:36:11.167Z,7.30
2018-03-04T08:38:40.296Z,7.70
2018-03-04T08:41:08.617Z,7.70
2018-03-04T08:43:36.918Z,7.90
2018-03-04T08:46:05.232Z,8.10
2018-03-04T08:48:33.539Z,8.30
2018-03-04T08:51:03.158Z,8.50
2018-03-04T08:53:31.467Z,8.70
2018-03-04T08:56:00.820Z,8.90
2018-03-04T08:58:29.219Z,9.10
2018-03-04T09:00:57.532Z,9.30
2018-03-04T09:03:25.913Z,9.50
2018-03-04T09:05:54.229Z,9.70
2018-03-04T09:08:23.310Z,10.20
2018-03-04T09:10:52.434Z,10.50
2018-03-04T09:13:21.522Z,10.50
2018-03-04T09:15:50.650Z,10.50
2018-03-04T09:18:19.154Z,10.50
2018-03-04T09:20:47.516Z,10.40
2018-03-04T09:23:15.829Z,10.20
2018-03-04T09:25:44.160Z,10.00
2018-03-04T09:28:13.358Z,9.50
2018-03-04T09:30:42.446Z,9.30
2018-03-04T09:33:10.773Z,9.30
2018-03-04T09:35:39.092Z,9.20
2018-03-04T09:38:08.167Z,9.00
2018-03-04T09:40:36.505Z,9.00
2018-03-04T09:43:04.830Z,8.90
2018-03-04T09:45:33.197Z,9.00
2018-03-04T09:48:01.536Z,8.90
2018-03-04T09:50:30.689Z,8.90
2018-03-04T09:52:59.177Z,8.90
2018-03-04T09:55:28.300Z,9.00
2018-03-04T09:57:56.636Z,9.10
2018-03-04T10:00:25.760Z,9.20
2018-03-04T10:02:54.055Z,9.30
2018-03-04T10:05:23.113Z,9.40
2018-03-04T10:08:00.894Z,9.40
2018-03-04T10:10:29.376Z,9.50
2018-03-04T10:12:57.684Z,9.50
2018-03-04T10:15:26.002Z,9.60
2018-03-04T10:17:55.151Z,9.70
2018-03-04T10:20:23.444Z,9.80
2018-03-04T10:22:51.764Z,9.90
2018-03-04T10:25:20.859Z,10.10
2018-03-04T10:27:50.701Z,10.20
2018-03-04T10:30:19.040Z,10.20
2018-03-04T10:32:47.354Z,10.30
2018-03-04T10:35:16.408Z,10.60
2018-03-04T10:37:44.725Z,10.50
2018-03-04T10:40:13.060Z,10.70
2018-03-04T10:42:41.372Z,10.90
2018-03-04T10:45:10.454Z,11.10
2018-03-04T10:47:38.770Z,11.10
2018-03-04T10:50:07.130Z,11.30
2018-03-04T10:52:35.576Z,11.50
2018-03-04T10:55:04.290Z,11.60
2018-03-04T10:57:32.668Z,11.70
2018-03-04T11:00:01.022Z,11.80
2018-03-04T11:02:34.986Z,12.00
2018-03-04T11:05:03.314Z,12.20
2018-03-04T11:07:31.622Z,12.50
2018-03-04T11:10:00.032Z,12.80
2018-03-04T11:12:28.363Z,13.20
2018-03-04T11:14:56.665Z,13.50
2018-03-04T11:17:25.034Z,13.70
2018-03-04T11:19:53.483Z,14.10
2018-03-04T11:22:21.803Z,14.40
2018-03-04T11:24:50.118Z,14.70
2018-03-04T11:27:18.427Z,15.00
2018-03-04T11:29:46.790Z,15.20
2018-03-04T11:32:15.112Z,15.30
2018-03-04T11:34:43.444Z,15.50
2018-03-04T11:37:11.794Z,15.70
2018-03-04T11:39:40.172Z,15.90
2018-03-04T11:42:08.518Z,16.20
2018-03-04T11:44:37.613Z,16.50
2018-03-04T11:47:07.339Z,16.80
2018-03-04T11:49:35.664Z,16.80
2018-03-04T11:52:03.996Z,17.20
2018-03-04T11:54:32.325Z,17.40
2018-03-04T11:57:00.652Z,17.60
2018-03-04T11:59:29.766Z,18.10
2018-03-04T12:01:58.210Z,18.10
2018-03-04T12:04:26.543Z,18.60
2018-03-04T12:06:54.883Z,18.90
2018-03-04T12:09:23.223Z,19.00
2018-03-04T12:11:51.580Z,19.00
2018-03-04T12:14:19.900Z,19.10
2018-03-04T12:16:48.222Z,19.20
2018-03-04T12:19:17.324Z,19.60
2018-03-04T12:21:46.399Z,19.90
2018-03-04T12:24:15.685Z,20.20
2018-03-04T12:26:43.990Z,20.20
2018-03-04T12:29:13.085Z,20.70
2018-03-04T12:31:43.008Z,20.90
2018-03-04T12:34:12.144Z,21.10
2018-03-04T12:36:40.499Z,21.10
2018-03-04T12:39:08.825Z,21.40
2018-03-04T12:41:37.165Z,21.70
2018-03-04T12:44:06.261Z,22.30
2018-03-04T12:46:35.364Z,22.70
2018-03-04T12:49:03.715Z,22.70
2018-03-04T12:51:33.588Z,23.20
2018-03-04T12:54:01.911Z,23.20
2018-03-04T12:56:31.005Z,23.80
2018-03-04T12:58:59.322Z,23.70
2018-03-04T13:01:28.405Z,23.80
2018-03-04T13:03:57.589Z,23.80
2018-03-04T13:06:25.931Z,23.70
2018-03-04T13:08:54.235Z,23.50
2018-03-04T13:11:22.539Z,23.10
2018-03-04T13:13:51.632Z,22.40
2018-03-04T13:16:21.597Z,22.40
2018-03-04T13:18:49.936Z,22.40
2018-03-04T13:21:18.263Z,22.80
2018-03-04T13:23:46.583Z,23.50
2018-03-04T13:26:14.899Z,24.30
2018-03-04T13:28:44.007Z,25.50
2018-03-04T13:31:12.415Z,25.40
2018-03-04T13:33:41.379Z,25.70
2018-03-04T13:36:09.714Z,25.80
2018-03-04T13:38:38.041Z,25.80
2018-03-04T13:41:07.140Z,25.40
2018-03-04T13:43:36.226Z,25.20
2018-03-04T13:46:04.590Z,25.10
2018-03-04T13:48:32.919Z,24.90
2018-03-04T13:51:01.245Z,24.70
2018-03-04T13:53:29.567Z,24.60
2018-03-04T13:55:58.665Z,24.40
2018-03-04T13:58:27.765Z,24.40
2018-03-04T14:00:56.852Z,24.30
2018-03-04T14:03:25.259Z,24.30
2018-03-04T14:05:53.589Z,24.30
2018-03-04T14:08:21.945Z,24.30
2018-03-04T14:10:50.336Z,24.10
2018-03-04T14:13:18.661Z,23.80
2018-03-04T14:15:47.720Z,23.00
2018-03-04T14:18:16.046Z,23.00
2018-03-04T14:20:45.137Z,22.20
2018-03-04T14:23:14.275Z,21.90
2018-03-04T14:25:42.761Z,21.90
2018-03-04T14:28:11.105Z,21.90
2018-03-04T14:30:39.433Z,21.90
2018-03-04T14:33:07.957Z,21.90
2018-03-04T14:35:36.282Z,21.80
2018-03-04T14:38:04.597Z,21.70
2018-03-04T14:40:32.921Z,21.40
2018-03-04T14:43:02.010Z,20.90
2018-03-04T14:45:30.336Z,20.90
2018-03-04T14:48:04.979Z,20.60
2018-03-04T14:50:34.166Z,20.40
2018-03-04T14:53:05.661Z,20.20
2018-03-04T14:55:34.060Z,19.90
2018-03-04T14:58:05.205Z,19.30
2018-03-04T15:00:34.837Z,19.00
2018-03-04T15:03:03.144Z,18.90
2018-03-04T15:05:31.559Z,18.70
2018-03-04T15:07:59.911Z,18.50
2018-03-04T15:10:28.855Z,18.30
2018-03-04T15:12:57.213Z,18.20
2018-03-04T15:15:25.636Z,18.00
2018-03-04T15:17:53.961Z,17.90
2018-03-04T15:20:22.265Z,17.80
2018-03-04T15:22:50.588Z,17.60
2018-03-04T15:25:18.894Z,17.40
2018-03-04T15:27:47.234Z,17.20
2018-03-04T15:30:15.579Z,17.10
2018-03-04T15:32:43.883Z,16.90
2018-03-04T15:35:13.009Z,16.50
2018-03-04T15:37:41.331Z,16.50
2018-03-04T15:40:09.643Z,16.30
2018-03-04T15:42:38.726Z,15.90
2018-03-04T15:45:11.166Z,15.90
2018-03-04T15:47:42.399Z,15.70
2018-03-04T15:50:13.795Z,15.50
2018-03-04T15:52:45.862Z,15.30
2018-03-04T15:55:21.099Z,15.20
2018-03-04T15:57:51.207Z,14.80
2018-03-04T16:00:23.074Z,14.80
2018-03-04T16:02:55.504Z,14.40
2018-03-04T16:05:25.145Z,14.40
2018-03-04T16:07:55.115Z,14.00
2018-03-04T16:10:25.703Z,14.00
2018-03-04T16:12:55.365Z,13.80
2018-03-04T16:15:28.337Z,13.50
2018-03-04T16:17:57.005Z,13.50
2018-03-04T16:20:26.751Z,13.40
2018-03-04T16:22:59.120Z,13.10
2018-03-04T16:25:33.427Z,12.90
2018-03-04T16:28:04.865Z,12.90
2018-03-04T16:30:34.921Z,12.70
2018-03-04T16:33:04.637Z,12.60
2018-03-04T16:35:33.727Z,12.50
2018-03-04T16:38:02.079Z,12.40
2018-03-04T16:40:30.556Z,12.30
2018-03-04T16:42:58.864Z,12.30
2018-03-04T16:45:29.557Z,12.10
2018-03-04T16:47:58.323Z,12.00
2018-03-04T16:50:26.671Z,11.90
2018-03-04T16:52:55.443Z,11.80
2018-03-04T16:55:25.950Z,11.60
2018-03-04T16:57:57.545Z,11.50
2018-03-04T17:00:28.280Z,11.40
2018-03-04T17:02:56.622Z,11.30
2018-03-04T17:05:25.003Z,11.30
2018-03-04T17:07:54.103Z,11.10
2018-03-04T17:10:22.488Z,11.10
2018-03-04T17:12:51.687Z,11.00
2018-03-04T17:15:20.728Z,10.80
2018-03-04T17:17:49.066Z,10.70
2018-03-04T17:20:17.384Z,10.60
2018-03-04T17:22:45.708Z,10.50
2018-03-04T17:25:14.495Z,10.40
2018-03-04T17:27:42.867Z,10.30
2018-03-04T17:30:12.937Z,10.10
2018-03-04T17:32:42.698Z,10.10
2018-03-04T17:35:13.235Z,10.10
2018-03-04T17:37:41.817Z,10.00
2018-03-04T17:40:11.879Z,10.00
2018-03-04T17:42:40.260Z,9.90
2018-03-04T17:45:09.479Z,10.00
2018-03-04T17:47:41.986Z,9.90
2018-03-04T17:50:11.116Z,9.80
2018-03-04T17:52:39.494Z,9.80
2018-03-04T17:55:07.798Z,9.80
2018-03-04T17:57:36.103Z,9.80
2018-03-04T18:00:04.427Z,9.80
2018-03-04T18:02:33.497Z,9.80
2018-03-04T18:05:01.836Z,9.80
2018-03-04T18:07:30.143Z,9.80
2018-03-04T18:09:58.461Z,9.80
2018-03-04T18:12:26.777Z,9.90
2018-03-04T18:14:55.093Z,9.80
2018-03-04T18:17:23.413Z,9.80
2018-03-04T18:19:52.504Z,9.80
2018-03-04T18:22:21.602Z,9.80
2018-03-04T18:24:49.910Z,9.80
2018-03-04T18:27:18.253Z,9.80
2018-03-04T18:29:47.338Z,9.70
2018-03-04T18:32:15.885Z,9.70
2018-03-04T18:34:44.211Z,9.70
2018-03-04T18:37:12.499Z,9.70
2018-03-04T18:39:41.583Z,9.70
2018-03-04T18:42:09.907Z,9.70
2018-03-04T18:44:38.229Z,9.70
2018-03-04T18:47:06.536Z,9.70
2018-03-04T18:49:35.689Z,9.70
2018-03-04T18:52:04.026Z,9.70
2018-03-04T18:54:33.106Z,9.70
2018-03-04T18:57:01.489Z,9.60
2018-03-04T18:59:30.298Z,9.60
2018-03-04T19:01:58.623Z,9.60
2018-03-04T19:04:26.927Z,9.50
2018-03-04T19:06:55.248Z,9.50
2018-03-04T19:09:24.326Z,9.40
2018-03-04T19:11:52.643Z,9.40
2018-03-04T19:14:21.750Z,9.30
2018-03-04T19:16:50.080Z,9.30
2018-03-04T19:19:18.379Z,9.20
2018-03-04T19:21:48.197Z,9.00
2018-03-04T19:24:17.379Z,9.00
2018-03-04T19:26:45.741Z,9.00
2018-03-04T19:29:14.070Z,9.00
2018-03-04T19:31:43.148Z,8.90
2018-03-04T19:34:12.445Z,8.90
2018-03-04T19:36:42.270Z,8.80
2018-03-04T19:39:10.582Z,8.80
2018-03-04T19:41:39.721Z,8.80
2018-03-04T19:44:12.039Z,8.70
2018-03-04T19:46:45.189Z,8.70
2018-03-04T19:49:18.129Z,8.70
2018-03-04T19:51:46.944Z,8.60
2018-03-04T19:54:18.868Z,8.50
2018-03-04T19:56:47.817Z,8.50
2018-03-04T19:59:17.961Z,8.40
2018-03-04T20:01:48.913Z,8.40
2018-03-04T20:04:19.368Z,8.30
2018-03-04T20:06:48.908Z,8.30
2018-03-04T20:09:19.018Z,8.30
2018-03-04T20:11:48.745Z,8.30
2018-03-04T20:14:18.953Z,8.20
2018-03-04T20:16:48.963Z,8.20
2018-03-04T20:19:20.138Z,8.20
2018-03-04T20:21:48.525Z,8.10
2018-03-04T20:24:16.872Z,8.10
2018-03-04T20:26:45.207Z,8.10
2018-03-04T20:29:13.511Z,8.10
2018-03-04T20:31:42.632Z,8.00
2018-03-04T20:34:11.584Z,8.00
2018-03-04T20:36:39.885Z,8.00
2018-03-04T20:39:08.963Z,7.90
2018-03-04T20:41:37.310Z,7.90
2018-03-04T20:44:05.615Z,7.90
2018-03-04T20:46:33.934Z,7.90
2018-03-04T20:49:03.893Z,7.80
2018-03-04T20:51:32.187Z,7.80
2018-03-04T20:54:00.508Z,7.80
2018-03-04T20:56:29.583Z,7.70
2018-03-04T20:58:57.919Z,7.70
2018-03-04T21:01:26.236Z,7.70
2018-03-04T21:03:54.532Z,7.70
2018-03-04T21:06:22.836Z,7.70
2018-03-04T21:08:51.907Z,7.60
2018-03-04T21:11:20.205Z,7.60
2018-03-04T21:13:49.349Z,7.60
2018-03-04T21:16:18.374Z,7.60
2018-03-04T21:18:46.694Z,7.60
2018-03-04T21:21:15.068Z,7.60
2018-03-04T21:26:18.533Z,7.60
2018-03-04T21:28:46.843Z,7.60
2018-03-04T21:31:15.139Z,7.60
2018-03-04T21:33:43.468Z,7.60
2018-03-04T21:36:11.779Z,7.60
2018-03-04T21:38:40.095Z,7.60
2018-03-04T21:41:09.309Z,7.60
2018-03-04T21:43:37.710Z,7.50
2018-03-04T21:46:06.098Z,7.60
2018-03-04T21:48:34.394Z,7.60
2018-03-04T21:51:02.714Z,7.60
2018-03-04T21:53:31.796Z,7.60
2018-03-04T21:56:00.148Z,7.60
2018-03-04T21:58:28.514Z,7.50
2018-03-04T22:00:56.816Z,7.50
2018-03-04T22:03:25.141Z,7.60
2018-03-04T22:05:54.260Z,7.60
2018-03-04T22:08:22.593Z,7.50
2018-03-04T22:10:51.010Z,7.60
2018-03-04T22:13:20.084Z,7.60
2018-03-04T22:15:48.404Z,7.50
2018-03-04T22:18:16.736Z,7.60
2018-03-04T22:20:45.848Z,7.50
2018-03-04T22:23:14.946Z,7.50
2018-03-04T22:25:43.300Z,7.50
2018-03-04T22:28:11.618Z,7.50
2018-03-04T22:30:40.689Z,7.40
2018-03-04T22:33:09.130Z,7.40
2018-03-04T22:35:37.458Z,7.40
2018-03-04T22:38:05.795Z,7.40
2018-03-04T22:40:34.100Z,7.40
2018-03-04T22:43:02.419Z,7.40
2018-03-04T22:45:31.502Z,7.30
2018-03-04T22:48:00.580Z,7.20
2018-03-04T22:50:28.890Z,7.20
2018-03-04T22:52:57.982Z,7.10
2018-03-04T22:55:26.289Z,7.10
2018-03-04T22:57:55.395Z,7.00
2018-03-04T23:00:23.730Z,7.00
2018-03-04T23:02:52.089Z,7.00
2018-03-04T23:05:21.126Z,6.90
2018-03-04T23:07:49.456Z,6.90
2018-03-04T23:10:17.775Z,6.90
2018-03-04T23:12:46.100Z,6.80
2018-03-04T23:15:14.426Z,6.70
2018-03-04T23:17:43.069Z,6.70
2018-03-04T23:20:11.400Z,6.70
2018-03-04T23:22:39.720Z,6.70
2018-03-04T23:25:08.821Z,6.60
2018-03-04T23:27:37.923Z,6.60
2018-03-04T23:30:06.250Z,6.60
2018-03-04T23:32:34.554Z,6.60
2018-03-04T23:35:02.868Z,6.50
2018-03-04T23:37:31.191Z,6.50
2018-03-04T23:39:59.635Z,6.50
2018-03-04T23:42:28.653Z,6.50
2018-03-04T23:44:57.005Z,6.40
2018-03-04T23:47:26.077Z,6.40
2018-03-04T23:49:54.393Z,6.40
2018-03-04T23:52:22.730Z,6.40
2018-03-04T23:54:51.014Z,6.40
2018-03-04T23:57:19.355Z,6.40
2018-03-04T23:59:47.675Z,6.40
